Time;durP1;ratioP1;P1;durP2;ratioP2;P2;SDS_P1;SDS_P2;PMS_P1;PMS_P2;Temp;Humidity;BMP_temperature;BMP_pressure;BME280_temperature;BME280_humidity;BME280_pressure;Samples;Min_cycle;Max_cycle;Signal;HPM_P1;HPM_P2
2022/02/01 00:02:17;;;;;;;42.60;14.70;;;;;;;0.69;100.00;101181.59;4911758;29;20669;-76
2022/02/01 00:04:54;;;;;;;42.60;14.38;;;;;;;0.69;100.00;101178.19;4915565;29;20465;-76
2022/02/01 00:07:51;;;;;;;29.25;14.73;;;;;;;0.77;100.00;101187.28;4910626;28;20159;-75
2022/02/01 00:10:15;;;;;;;41.05;15.00;;;;;;;1.01;100.00;101186.16;4912204;29;20160;-75
2022/02/01 00:13:01;;;;;;;41.80;14.70;;;;;;;1.02;100.00;101190.41;4912616;29;20043;-75
2022/02/01 00:16:04;;;;;;;43.03;15.10;;;;;;;1.06;100.00;101187.63;4903683;29;20039;-76
2022/02/01 00:37:00;;;;;;;46.97;14.77;;;;;;;1.12;100.00;101182.13;4912121;29;20128;-76
2022/02/01 00:39:31;;;;;;;36.00;15.13;;;;;;;0.93;100.00;101178.78;4914489;29;20575;-76
2022/02/01 00:41:58;;;;;;;41.80;14.38;;;;;;;1.08;100.00;101170.28;4913134;29;20408;-76
2022/02/01 00:44:25;;;;;;;42.50;15.15;;;;;;;1.07;100.00;101185.84;4907861;29;20635;-75
2022/02/01 00:46:51;;;;;;;41.90;15.18;;;;;;;1.12;100.00;101174.38;4909332;29;20880;-75
2022/02/01 00:49:17;;;;;;;44.15;16.48;;;;;;;1.24;100.00;101183.28;4893731;29;20485;-76
2022/02/01 00:51:43;;;;;;;36.97;15.07;;;;;;;1.00;100.00;101185.34;4917562;29;20053;-75
2022/02/01 00:54:09;;;;;;;36.63;15.15;;;;;;;0.95;100.00;101188.13;4892111;29;20175;-75
2022/02/01 00:56:34;;;;;;;43.28;16.45;;;;;;;1.05;100.00;101178.19;4912747;29;20032;-75
2022/02/01 00:59:00;;;;;;;40.38;16.10;;;;;;;1.04;100.00;101179.09;4909496;29;20821;-75
2022/02/01 01:01:26;;;;;;;37.28;15.82;;;;;;;1.04;100.00;101186.03;4919791;29;20040;-75
2022/02/01 01:03:52;;;;;;;46.55;16.35;;;;;;;1.01;100.00;101192.16;4906034;29;20036;-75
2022/02/01 01:06:17;;;;;;;36.88;16.58;;;;;;;0.94;100.00;101190.78;4909827;29;20550;-75
2022/02/01 01:08:43;;;;;;;39.85;16.23;;;;;;;0.94;100.00;101201.09;4912185;29;20040;-75
2022/02/01 01:11:10;;;;;;;37.63;16.95;;;;;;;0.90;100.00;101203.00;4909839;29;20048;-74
2022/02/01 01:53:59;;;;;;;31.80;6.28;;;;;;;1.37;100.00;101173.19;4912512;29;20785;-76
2022/02/01 01:56:25;;;;;;;27.20;6.10;;;;;;;1.26;100.00;101172.88;4906117;29;20063;-75
2022/02/01 01:58:51;;;;;;;29.52;6.72;;;;;;;1.31;100.00;101171.72;4911347;29;20588;-74
2022/02/01 02:01:16;;;;;;;25.05;7.20;;;;;;;1.24;100.00;101162.59;4896090;29;20083;-76
2022/02/01 02:03:45;;;;;;;23.60;5.55;;;;;;;1.25;100.00;101177.22;4915093;29;20504;-75
2022/02/01 02:06:12;;;;;;;25.17;5.68;;;;;;;1.20;100.00;101165.44;4920110;29;20040;-75
2022/02/01 02:08:40;;;;;;;22.77;4.45;;;;;;;1.22;100.00;101172.19;4903569;29;20572;-76
2022/02/01 02:11:11;;;;;;;24.33;4.68;;;;;;;1.07;100.00;101171.19;4926053;29;20075;-76
2022/02/01 02:16:23;;;;;;;14.38;2.92;;;;;;;0.86;100.00;101151.56;4907584;29;20565;-75
2022/02/01 02:18:49;;;;;;;20.73;3.42;;;;;;;0.76;100.00;101146.84;4908400;29;20055;-75
2022/02/01 02:21:17;;;;;;;22.45;3.00;;;;;;;0.68;100.00;101143.81;4906035;29;20040;-76
2022/02/01 02:23:43;;;;;;;25.52;2.70;;;;;;;0.56;100.00;101132.28;4929041;29;20098;-76
2022/02/01 02:26:16;;;;;;;24.27;3.10;;;;;;;0.55;100.00;101145.28;4899956;29;20060;-75
2022/02/01 02:28:43;;;;;;;;;;;;;;;0.53;100.00;101147.13;4914116;29;20035;-76
2022/02/01 02:31:09;;;;;;;19.75;2.47;;;;;;;0.55;100.00;101148.72;4920731;29;19922;-76
2022/02/01 02:33:35;;;;;;;23.55;2.92;;;;;;;0.47;100.00;101132.75;4913314;29;20051;-75
2022/02/01 02:36:18;;;;;;;19.85;2.58;;;;;;;0.47;100.00;101139.63;4896941;29;20036;-76
2022/02/01 02:38:54;;;;;;;20.95;2.85;;;;;;;0.44;100.00;101135.47;4912702;29;20054;-76
2022/02/01 02:46:37;;;;;;;18.15;2.65;;;;;;;0.42;100.00;101157.94;4926267;29;20036;-76
2022/02/01 02:49:07;;;;;;;23.95;2.50;;;;;;;0.48;100.00;101152.47;4911524;29;20595;-76
2022/02/01 02:51:33;;;;;;;24.95;2.25;;;;;;;0.64;100.00;101149.16;4910844;29;20477;-76
2022/02/01 02:54:07;;;;;;;21.33;2.30;;;;;;;0.82;100.00;101155.22;4910915;29;20092;-77
2022/02/01 02:56:33;;;;;;;20.08;2.65;;;;;;;0.76;100.00;101156.34;4926981;29;20050;-77
2022/02/01 02:58:59;;;;;;;23.92;2.63;;;;;;;0.81;100.00;101148.38;4911235;29;20040;-77
2022/02/01 03:01:25;;;;;;;26.42;2.53;;;;;;;0.91;100.00;101154.78;4926035;29;20512;-76
2022/02/01 03:03:51;;;;;;;21.60;2.00;;;;;;;0.90;100.00;101135.84;4910998;29;20063;-76
2022/02/01 03:06:16;;;;;;;27.77;2.67;;;;;;;0.91;100.00;101145.28;4910150;29;20114;-77
2022/02/01 03:08:42;;;;;;;23.20;3.05;;;;;;;0.91;100.00;101147.84;4910767;29;20054;-76
2022/02/01 03:11:12;;;;;;;24.02;2.50;;;;;;;1.04;100.00;101157.59;4905451;29;20071;-77
2022/02/01 03:13:42;;;;;;;24.85;3.03;;;;;;;0.97;100.00;101126.88;4909676;29;20047;-76
2022/02/01 03:21:36;;;;;;;29.63;2.80;;;;;;;1.30;100.00;101153.72;4909842;29;20388;-76
2022/02/01 03:24:03;;;;;;;20.83;3.15;;;;;;;1.25;100.00;101145.38;4903301;29;20531;-76
2022/02/01 03:26:29;;;;;;;29.63;3.35;;;;;;;1.24;100.00;101133.34;4915071;29;20032;-76
2022/02/01 03:28:54;;;;;;;24.00;2.72;;;;;;;1.17;100.00;101144.00;4915134;29;20051;-76
2022/02/01 03:31:20;;;;;;;22.80;2.58;;;;;;;1.16;100.00;101133.72;4919987;29;20416;-76
2022/02/01 03:33:46;;;;;;;24.33;3.15;;;;;;;1.12;100.00;101132.22;4898071;29;20051;-75
2022/02/01 03:36:12;;;;;;;21.08;2.88;;;;;;;1.12;100.00;101127.88;4914308;29;20051;-75
2022/02/01 03:38:37;;;;;;;22.23;3.00;;;;;;;1.10;100.00;101134.88;4932354;29;20095;-75
2022/02/01 03:41:04;;;;;;;29.45;4.30;;;;;;;1.05;100.00;101131.69;4902871;29;20042;-76
2022/02/01 03:43:30;;;;;;;18.88;2.10;;;;;;;0.92;100.00;101128.03;4903160;29;20543;-75
2022/02/01 03:45:55;;;;;;;22.98;3.03;;;;;;;0.96;100.00;101140.72;4921934;29;20090;-76
2022/02/01 03:48:21;;;;;;;23.05;2.88;;;;;;;0.94;100.00;101127.06;4915163;29;20036;-76
2022/02/01 03:50:47;;;;;;;22.08;2.78;;;;;;;0.95;100.00;101126.13;4916604;29;20047;-75
2022/02/01 03:53:13;;;;;;;24.77;2.80;;;;;;;0.86;100.00;101124.00;4901822;29;20417;-76
2022/02/01 03:55:39;;;;;;;19.45;2.50;;;;;;;0.84;100.00;101130.97;4918765;29;20043;-77
2022/02/01 03:58:05;;;;;;;23.98;2.80;;;;;;;0.92;100.00;101130.59;4915514;29;20127;-76
2022/02/01 04:00:31;;;;;;;28.17;4.25;;;;;;;0.96;100.00;101124.38;4916092;29;20036;-75
2022/02/01 04:02:59;;;;;;;30.70;3.08;;;;;;;1.01;100.00;101119.81;4928961;29;20518;-76
2022/02/01 04:05:25;;;;;;;22.85;2.75;;;;;;;1.02;100.00;101102.56;4930214;29;20036;-75
2022/02/01 04:07:51;;;;;;;21.98;2.67;;;;;;;1.21;100.00;101121.44;4898647;29;20036;-75
2022/02/01 04:10:19;;;;;;;19.10;2.22;;;;;;;1.13;100.00;101116.66;4914738;29;20099;-75
2022/02/01 04:12:44;;;;;;;23.50;2.90;;;;;;;1.29;100.00;101119.28;4915487;29;20031;-76
2022/02/01 04:15:10;;;;;;;23.17;2.65;;;;;;;1.26;100.00;101121.19;4914450;29;20432;-75
2022/02/01 04:17:38;;;;;;;25.88;3.33;;;;;;;1.15;100.00;101108.81;4914887;29;20099;-75
2022/02/01 04:20:04;;;;;;;22.25;2.88;;;;;;;1.23;100.00;101098.09;4883852;29;20043;-76
2022/02/01 04:22:30;;;;;;;26.90;2.53;;;;;;;1.30;100.00;101084.78;4923554;29;20074;-75
2022/02/01 04:24:55;;;;;;;20.60;2.33;;;;;;;1.44;100.00;101103.91;4913010;29;20067;-77
2022/02/01 04:27:31;;;;;;;26.27;2.55;;;;;;;1.39;100.00;101096.38;4920304;29;20037;-76
2022/02/01 04:30:07;;;;;;;25.95;2.90;;;;;;;1.24;100.00;101107.50;4907220;29;20036;-75
2022/02/01 04:32:48;;;;;;;21.92;2.25;;;;;;;1.09;100.00;101103.94;4906279;29;20044;-75
2022/02/01 04:35:16;;;;;;;24.23;2.53;;;;;;;1.07;100.00;101100.59;4918068;29;20032;-75
2022/02/01 04:37:43;;;;;;;23.25;2.78;;;;;;;1.02;100.00;101113.75;4914389;29;20045;-75
2022/02/01 04:40:11;;;;;;;24.10;2.67;;;;;;;1.10;100.00;101114.22;4922408;29;20040;-76
2022/02/01 04:42:39;;;;;;;21.55;2.58;;;;;;;1.13;100.00;101108.91;4914210;29;20040;-75
2022/02/01 04:45:07;;;;;;;28.83;3.05;;;;;;;1.09;100.00;101101.34;4913554;29;20036;-76
2022/02/01 04:47:34;;;;;;;22.77;3.00;;;;;;;1.15;100.00;101093.31;4913497;29;20127;-75
2022/02/01 04:50:03;;;;;;;28.15;3.15;;;;;;;1.14;100.00;101102.78;4914043;29;20043;-76
2022/02/01 04:52:29;;;;;;;21.45;2.72;;;;;;;1.20;100.00;101093.06;4908142;29;20605;-76
2022/02/01 04:54:55;;;;;;;26.58;3.05;;;;;;;1.32;100.00;101098.47;4883580;29;20047;-76
2022/02/01 04:57:21;;;;;;;27.20;2.58;;;;;;;1.27;100.00;101100.44;4914523;29;20040;-76
2022/02/01 04:59:46;;;;;;;19.58;2.63;;;;;;;1.50;100.00;101096.66;4904186;29;20033;-75
2022/02/01 05:02:12;;;;;;;27.08;2.63;;;;;;;1.54;100.00;101103.38;4911482;29;20123;-76
2022/02/01 05:04:37;;;;;;;21.88;2.70;;;;;;;1.59;100.00;101110.06;4913328;29;20035;-75
2022/02/01 05:07:03;;;;;;;23.63;2.60;;;;;;;1.62;100.00;101118.50;4912434;29;20071;-76
2022/02/01 05:09:29;;;;;;;27.27;3.42;;;;;;;1.72;100.00;101113.66;4906684;29;20041;-76
2022/02/01 05:11:57;;;;;;;19.23;2.42;;;;;;;1.62;100.00;101109.88;4925805;29;20040;-75
2022/02/01 05:14:24;;;;;;;32.47;3.80;;;;;;;1.64;100.00;101127.00;4898457;29;20108;-76
2022/02/01 05:19:32;;;;;;;19.20;2.90;;;;;;;1.43;100.00;101131.53;4914735;29;20031;-76
2022/02/01 05:22:02;;;;;;;25.77;2.50;;;;;;;1.60;100.00;101122.03;4914209;29;20134;-75
2022/02/01 05:24:28;;;;;;;27.35;2.88;;;;;;;1.54;100.00;101126.66;4923580;29;20032;-76
2022/02/01 05:26:55;;;;;;;21.23;2.38;;;;;;;1.70;100.00;101134.44;4915552;29;20079;-77
2022/02/01 05:29:22;;;;;;;28.45;3.25;;;;;;;1.73;100.00;101134.28;4917041;29;20043;-75
2022/02/01 05:31:52;;;;;;;32.15;2.90;;;;;;;1.63;100.00;101121.91;4910425;29;20094;-75
2022/02/01 05:34:18;;;;;;;24.65;2.63;;;;;;;1.59;100.00;101121.22;4899298;29;20063;-76
2022/02/01 05:36:44;;;;;;;25.73;3.20;;;;;;;1.51;100.00;101119.03;4914999;29;20507;-75
2022/02/01 05:39:19;;;;;;;26.15;3.75;;;;;;;1.40;100.00;101126.50;4916278;29;20035;-75
2022/02/01 05:41:45;;;;;;;26.75;2.35;;;;;;;1.47;100.00;101111.50;4933253;29;20036;-76
2022/02/01 05:44:11;;;;;;;23.20;2.92;;;;;;;1.53;100.00;101104.28;4912534;29;20036;-76
2022/02/01 05:46:50;;;;;;;25.15;2.88;;;;;;;1.42;100.00;101098.00;5063019;28;20401;-75
2022/02/01 05:49:18;;;;;;;21.83;2.75;;;;;;;1.46;100.00;101087.41;5036199;28;20067;-77
2022/02/01 05:51:43;;;;;;;28.42;2.70;;;;;;;1.39;100.00;101085.22;5031485;28;20041;-76
2022/02/01 05:54:09;;;;;;;27.65;2.67;;;;;;;1.33;100.00;101082.03;5037450;28;20064;-77
2022/02/01 05:56:34;;;;;;;29.02;3.03;;;;;;;1.48;100.00;101087.34;5042206;28;20040;-75
2022/02/01 05:59:00;;;;;;;31.83;3.25;;;;;;;1.50;100.00;101088.91;5044839;28;20522;-76
2022/02/01 06:01:26;;;;;;;21.15;3.15;;;;;;;1.40;100.00;101082.56;5006225;28;20732;-76
2022/02/01 06:03:51;;;;;;;20.95;2.55;;;;;;;1.37;100.00;101074.94;5028802;28;20580;-75
2022/02/01 06:06:17;;;;;;;27.55;3.15;;;;;;;1.43;100.00;101064.31;5003096;28;20081;-75
2022/02/01 06:08:43;;;;;;;23.67;2.58;;;;;;;1.49;100.00;101063.16;5050230;28;20041;-76
2022/02/01 06:11:08;;;;;;;22.88;2.70;;;;;;;1.71;100.00;101058.53;5027410;28;20021;-76
2022/02/01 06:13:36;;;;;;;20.45;2.10;;;;;;;1.77;100.00;101062.50;5045167;28;20393;-76
2022/02/01 06:16:06;;;;;;;18.45;2.22;;;;;;;1.73;100.00;101056.69;5027894;28;20091;-75
2022/02/01 06:18:32;;;;;;;17.85;2.00;;;;;;;1.83;100.00;101045.81;5045299;28;20033;-76
2022/02/01 06:21:00;;;;;;;14.07;2.10;;;;;;;1.95;100.00;101040.00;5038608;28;20071;-74
2022/02/01 06:23:27;;;;;;;19.38;1.95;;;;;;;2.03;100.00;101049.94;5024835;28;20041;-75
2022/02/01 06:25:55;;;;;;;20.77;2.53;;;;;;;2.08;100.00;101060.88;5038670;28;20099;-76
2022/02/01 06:28:24;;;;;;;26.25;2.63;;;;;;;2.09;100.00;101044.41;5043335;28;20474;-75
2022/02/01 06:30:50;;;;;;;23.58;2.13;;;;;;;2.04;100.00;101049.03;5042702;28;20041;-76
2022/02/01 06:33:17;;;;;;;26.70;3.00;;;;;;;2.05;100.00;101048.91;5025889;28;20163;-76
2022/02/01 06:35:43;;;;;;;24.42;2.33;;;;;;;2.08;100.00;101047.94;5018193;28;20037;-75
2022/02/01 06:38:10;;;;;;;26.33;2.75;;;;;;;2.16;100.00;101063.88;5026729;28;20044;-74
2022/02/01 06:40:36;;;;;;;25.73;2.72;;;;;;;2.14;100.00;101069.13;5003150;28;20029;-76
2022/02/01 06:43:02;;;;;;;15.82;2.20;;;;;;;2.11;100.00;101060.69;5024690;28;20516;-74
2022/02/01 06:45:29;;;;;;;29.00;2.90;;;;;;;2.09;100.00;101050.44;5023390;28;20029;-76
2022/02/01 06:47:55;;;;;;;26.70;2.70;;;;;;;2.10;100.00;101040.91;5027661;28;20060;-75
2022/02/01 06:50:22;;;;;;;17.65;2.85;;;;;;;2.03;100.00;101040.41;5038910;28;20040;-76
2022/02/01 06:52:58;;;;;;;21.48;2.67;;;;;;;2.03;100.00;101037.81;5035378;28;20506;-75
2022/02/01 06:58:20;;;;;;;22.95;2.60;;;;;;;2.01;100.00;101038.84;5021002;28;20489;-75
2022/02/01 07:00:46;;;;;;;30.45;2.88;;;;;;;2.00;100.00;101027.66;5014757;28;20048;-77
2022/02/01 07:03:12;;;;;;;17.17;2.28;;;;;;;2.03;100.00;101017.13;5007098;28;20528;-76
2022/02/01 07:05:38;;;;;;;23.95;2.72;;;;;;;2.13;100.00;101009.72;5023185;28;20040;-76
2022/02/01 07:08:03;;;;;;;21.05;2.50;;;;;;;2.08;100.00;101009.13;4998538;28;20033;-76
2022/02/01 07:10:33;;;;;;;19.77;2.60;;;;;;;2.02;100.00;100987.00;5014798;28;20111;-77
2022/02/01 07:12:58;;;;;;;23.83;2.20;;;;;;;2.04;100.00;100986.94;5013028;28;20072;-76
2022/02/01 07:15:24;;;;;;;25.17;2.10;;;;;;;2.11;100.00;100980.47;4993619;28;20085;-76
2022/02/01 07:17:53;;;;;;;17.27;2.53;;;;;;;2.05;100.00;100975.63;5011921;28;20041;-76
2022/02/01 07:20:20;;;;;;;24.38;2.72;;;;;;;2.08;100.00;100980.66;5009066;28;20037;-75
2022/02/01 07:22:48;;;;;;;27.05;2.83;;;;;;;2.16;100.00;100980.22;5027580;28;20042;-75
2022/02/01 07:25:30;;;;;;;24.05;2.55;;;;;;;2.29;100.00;100987.19;4998270;28;20038;-75
2022/02/01 07:28:03;;;;;;;20.30;2.40;;;;;;;2.31;100.00;101000.06;5007552;28;20029;-76
2022/02/01 07:30:28;;;;;;;18.40;2.83;;;;;;;2.36;100.00;100998.06;4998289;28;20034;-76
2022/02/01 07:32:56;;;;;;;24.77;2.30;;;;;;;2.34;100.00;100997.31;4995929;28;20037;-76
2022/02/01 07:35:25;;;;;;;19.05;2.45;;;;;;;2.37;100.00;100988.53;5031460;28;20071;-75
2022/02/01 07:37:52;;;;;;;18.48;2.53;;;;;;;2.32;100.00;100974.09;5015228;28;20069;-75
2022/02/01 07:40:17;;;;;;;20.05;2.47;;;;;;;2.45;100.00;100968.19;4998574;28;20037;-77
2022/02/01 07:42:43;;;;;;;16.75;2.35;;;;;;;2.44;100.00;100949.25;4994154;28;20045;-77
2022/02/01 07:45:13;;;;;;;16.98;3.08;;;;;;;2.50;100.00;100938.53;5014164;28;20087;-76
2022/02/01 07:47:39;;;;;;;13.02;2.20;;;;;;;2.48;100.00;100922.25;5011344;28;20128;-76
2022/02/01 07:50:07;;;;;;;29.20;3.53;;;;;;;2.50;100.00;100925.56;5008229;28;20133;-77
2022/02/01 07:52:32;;;;;;;23.08;3.00;;;;;;;2.53;100.00;100929.75;5025423;28;20712;-76
2022/02/01 07:54:58;;;;;;;22.67;2.50;;;;;;;2.52;100.00;100934.13;5014557;28;20047;-76
2022/02/01 07:57:24;;;;;;;21.40;2.25;;;;;;;2.52;100.00;100930.66;5023573;28;20112;-77
2022/02/01 07:59:49;;;;;;;16.05;2.75;;;;;;;2.48;100.00;100929.19;5021480;28;20075;-76
2022/02/01 08:02:20;;;;;;;17.88;2.75;;;;;;;2.51;100.00;100932.44;5025420;28;20042;-76
2022/02/01 08:04:49;;;;;;;23.50;2.47;;;;;;;2.52;100.00;100915.13;5027930;28;20064;-77
2022/02/01 08:07:15;;;;;;;16.15;2.20;;;;;;;2.53;100.00;100907.28;5027246;28;20483;-75
2022/02/01 08:09:46;;;;;;;16.10;2.03;;;;;;;2.55;100.00;100911.53;5026380;28;20459;-75
2022/02/01 08:12:24;;;;;;;20.45;2.50;;;;;;;2.52;100.00;100891.81;5052665;28;20183;-75
2022/02/01 08:17:34;;;;;;;19.65;1.95;;;;;;;2.62;100.00;100873.97;5036832;28;20124;-76
2022/02/01 08:20:05;;;;;;;14.52;1.98;;;;;;;2.61;100.00;100864.56;5019066;28;20572;-74
2022/02/01 08:22:39;;;;;;;22.33;2.22;;;;;;;2.59;100.00;100859.47;5020597;28;20080;-76
2022/02/01 08:25:07;;;;;;;13.73;2.00;;;;;;;2.64;100.00;100862.63;5021143;28;20041;-76
2022/02/01 08:27:34;;;;;;;18.25;2.33;;;;;;;2.65;100.00;100858.25;4991236;28;20530;-75
2022/02/01 08:30:02;;;;;;;22.38;2.10;;;;;;;2.70;100.00;100859.66;4989412;28;20037;-76
2022/02/01 08:32:29;;;;;;;23.25;2.05;;;;;;;2.62;100.00;100859.28;4998590;28;20499;-76
2022/02/01 08:34:58;;;;;;;19.83;2.30;;;;;;;2.73;100.00;100856.03;5024616;28;20072;-77
2022/02/01 08:37:24;;;;;;;15.45;2.38;;;;;;;2.62;100.00;100848.06;5011086;28;20128;-76
2022/02/01 08:39:50;;;;;;;18.65;2.30;;;;;;;2.72;100.00;100847.44;4991791;28;20129;-77
2022/02/01 08:42:17;;;;;;;16.90;2.38;;;;;;;2.67;100.00;100830.50;5021265;28;20095;-76
2022/02/01 08:44:44;;;;;;;19.20;2.15;;;;;;;2.64;100.00;100816.00;5025806;28;20518;-76
2022/02/01 08:47:12;;;;;;;20.17;2.67;;;;;;;2.64;100.00;100821.19;5004048;28;20033;-75
2022/02/01 08:49:38;;;;;;;17.00;1.90;;;;;;;2.71;100.00;100814.72;5013906;28;20037;-75
2022/02/01 08:52:08;;;;;;;16.67;2.58;;;;;;;2.72;100.00;100811.19;5029612;28;20033;-76
2022/02/01 08:54:36;;;;;;;15.05;2.47;;;;;;;2.78;100.00;100804.78;4998727;28;20033;-76
2022/02/01 08:57:21;;;;;;;17.13;2.22;;;;;;;2.81;100.00;100796.00;5028030;28;20071;-77
2022/02/01 08:59:52;;;;;;;15.25;2.50;;;;;;;2.79;100.00;100790.06;5011392;28;20049;-76
2022/02/01 09:02:27;;;;;;;27.67;3.13;;;;;;;2.89;100.00;100778.22;5009828;28;20120;-75
2022/02/01 09:04:53;;;;;;;18.33;3.30;;;;;;;2.91;100.00;100774.59;5005291;28;20046;-77
2022/02/01 09:07:20;;;;;;;23.80;3.65;;;;;;;2.85;100.00;100762.03;4996425;28;20391;-77
2022/02/01 09:09:46;;;;;;;19.92;5.15;;;;;;;2.97;100.00;100759.59;4994191;28;20053;-73
2022/02/01 09:12:12;;;;;;;22.77;5.65;;;;;;;2.93;100.00;100753.78;5005407;28;20041;-75
2022/02/01 09:14:39;;;;;;;26.60;7.07;;;;;;;2.91;100.00;100734.91;4996783;28;20119;-75
2022/02/01 09:17:05;;;;;;;18.35;7.05;;;;;;;2.99;100.00;100748.19;5028363;28;20083;-75
2022/02/01 09:19:31;;;;;;;23.17;7.82;;;;;;;2.98;100.00;100736.19;5030421;28;20065;-77
2022/02/01 09:21:57;;;;;;;19.25;7.03;;;;;;;3.05;100.00;100726.25;4989833;28;20072;-77
2022/02/01 09:24:24;;;;;;;23.08;7.78;;;;;;;3.09;100.00;100725.13;5009403;28;20034;-76
2022/02/01 09:26:51;;;;;;;33.85;8.07;;;;;;;3.10;100.00;100706.88;5028803;28;20087;-76
2022/02/01 09:29:20;;;;;;;27.58;8.13;;;;;;;3.17;100.00;100714.28;5010055;28;20033;-76
2022/02/01 09:31:50;;;;;;;18.65;7.65;;;;;;;3.15;100.00;100691.03;5005052;28;20041;-75
2022/02/01 09:34:17;;;;;;;20.65;7.57;;;;;;;3.09;100.00;100686.28;5010181;28;20025;-75
2022/02/01 09:36:42;;;;;;;19.17;7.20;;;;;;;3.16;100.00;100677.13;5009017;28;20120;-76
2022/02/01 09:39:09;;;;;;;28.10;7.15;;;;;;;3.14;100.00;100665.22;5009790;28;20125;-76
2022/02/01 09:41:39;;;;;;;28.92;7.13;;;;;;;3.09;100.00;100656.00;5007781;28;20069;-76
2022/02/01 09:44:06;;;;;;;15.85;6.75;;;;;;;3.01;100.00;100642.69;5002947;28;20662;-75
2022/02/01 09:46:32;;;;;;;17.38;7.40;;;;;;;3.05;100.00;100632.94;4986939;28;20092;-76
2022/02/01 09:48:58;;;;;;;19.17;6.95;;;;;;;3.05;100.00;100632.94;4993683;28;20041;-77
2022/02/01 09:51:24;;;;;;;17.90;6.80;;;;;;;3.04;100.00;100636.50;5011412;28;20526;-76
2022/02/01 09:53:53;;;;;;;15.75;5.95;;;;;;;3.08;100.00;100614.63;5015375;28;20128;-76
2022/02/01 09:56:18;;;;;;;22.17;6.20;;;;;;;3.01;100.00;100606.41;5005322;28;20036;-75
2022/02/01 09:58:48;;;;;;;21.33;6.70;;;;;;;3.01;100.00;100613.34;5008763;28;20034;-75
2022/02/01 10:01:19;;;;;;;19.15;5.55;;;;;;;2.88;100.00;100585.69;5008137;28;20033;-75
2022/02/01 10:03:46;;;;;;;17.20;5.40;;;;;;;2.96;100.00;100586.91;5017020;28;20048;-77
2022/02/01 10:06:17;;;;;;;20.67;5.18;;;;;;;2.85;100.00;100574.69;5010514;28;20119;-76
2022/02/01 10:08:46;;;;;;;13.93;4.13;;;;;;;2.89;100.00;100563.19;5008935;28;20052;-75
2022/02/01 10:11:13;;;;;;;11.93;4.10;;;;;;;2.85;100.00;100557.38;5006433;28;20206;-76
2022/02/01 10:13:42;;;;;;;15.27;3.67;;;;;;;2.78;100.00;100550.09;4991654;28;20116;-77
2022/02/01 10:16:29;;;;;;;16.08;3.60;;;;;;;2.75;100.00;100548.56;4995134;28;20033;-75
2022/02/01 10:19:06;;;;;;;15.48;4.00;;;;;;;2.70;100.00;100530.72;5010418;28;20049;-75
2022/02/01 10:21:31;;;;;;;15.90;4.03;;;;;;;2.71;100.00;100526.34;5029131;28;20029;-75
2022/02/01 10:24:06;;;;;;;16.80;3.45;;;;;;;2.66;100.00;100525.84;5023560;28;20034;-75
2022/02/01 10:26:34;;;;;;;12.90;3.33;;;;;;;2.64;100.00;100510.41;5029131;28;20056;-75
2022/02/01 10:29:12;;;;;;;17.83;3.92;;;;;;;2.64;100.00;100494.88;5006778;28;20042;-75
2022/02/01 10:37:14;;;;;;;;;;;;;;;2.59;100.00;100468.44;5013982;28;20041;-76
2022/02/01 10:39:40;;;;;;;10.88;3.00;;;;;;;2.63;100.00;100456.13;5020453;28;19987;-76
2022/02/01 10:42:12;;;;;;;13.73;3.40;;;;;;;2.65;100.00;100433.53;5014950;28;20049;-76
2022/02/01 10:44:49;;;;;;;11.38;3.92;;;;;;;2.62;100.00;100431.16;5011710;28;20041;-76
2022/02/01 10:47:29;;;;;;;10.75;3.03;;;;;;;2.62;100.00;100406.09;4993048;28;20041;-76
2022/02/01 10:50:10;;;;;;;13.15;4.13;;;;;;;2.62;100.00;100415.59;4996910;28;20045;-76
2022/02/01 10:52:39;;;;;;;14.25;3.60;;;;;;;2.63;100.00;100404.34;5015220;28;20095;-75
2022/02/01 10:55:07;;;;;;;10.13;3.30;;;;;;;2.60;100.00;100379.47;5013967;28;20128;-75
2022/02/01 10:57:33;;;;;;;8.60;3.47;;;;;;;2.61;100.00;100378.53;5029306;28;20044;-76
2022/02/01 10:59:59;;;;;;;9.48;3.55;;;;;;;2.60;100.00;100350.16;4996120;28;20384;-77
2022/02/01 11:02:25;;;;;;;11.68;3.47;;;;;;;2.67;100.00;100334.09;5008588;28;20499;-76
2022/02/01 11:04:54;;;;;;;8.02;3.00;;;;;;;2.67;100.00;100325.50;4996304;28;20383;-75
2022/02/01 11:07:21;;;;;;;11.70;2.85;;;;;;;2.73;100.00;100317.28;5009802;28;20636;-76
2022/02/01 11:09:47;;;;;;;9.57;3.05;;;;;;;2.72;100.00;100298.34;4990999;28;20076;-76
2022/02/01 11:12:13;;;;;;;6.15;2.50;;;;;;;2.85;100.00;100294.91;5029532;28;20057;-74
2022/02/01 11:14:45;;;;;;;6.22;2.75;;;;;;;2.87;100.00;100283.50;5006235;28;20037;-74
2022/02/01 11:17:16;;;;;;;7.15;2.58;;;;;;;2.85;100.00;100267.22;5025312;28;20034;-74
2022/02/01 11:19:53;;;;;;;4.97;2.47;;;;;;;2.88;100.00;100267.03;5009140;28;20034;-77
2022/02/01 11:22:32;;;;;;;9.80;2.72;;;;;;;2.96;100.00;100253.53;5021026;28;20037;-75
2022/02/01 11:25:05;;;;;;;8.13;2.63;;;;;;;3.03;100.00;100241.78;5022236;28;20034;-76
2022/02/01 11:27:58;;;;;;;;;;;;;;;3.05;100.00;100226.97;5006073;28;20052;-76
2022/02/01 11:30:32;;;;;;;5.97;2.33;;;;;;;3.08;100.00;100218.94;5026867;28;19917;-75
2022/02/01 11:33:00;;;;;;;5.47;2.47;;;;;;;3.06;100.00;100209.63;4997968;28;20570;-75
2022/02/01 11:35:26;;;;;;;4.97;2.25;;;;;;;3.12;100.00;100198.81;5010539;28;20061;-76
2022/02/01 11:38:16;;;;;;;5.88;2.53;;;;;;;3.14;100.00;100180.56;5014435;28;20065;-76
2022/02/01 11:40:46;;;;;;;5.60;2.50;;;;;;;3.13;100.00;100174.56;5003366;28;20046;-75
2022/02/01 11:43:14;;;;;;;4.80;2.47;;;;;;;3.21;100.00;100171.41;5013784;28;20045;-76
2022/02/01 11:46:01;;;;;;;6.03;2.50;;;;;;;3.31;100.00;100154.22;5014040;28;20121;-77
2022/02/01 11:48:30;;;;;;;3.95;2.80;;;;;;;3.38;100.00;100157.22;5010867;28;20045;-77
2022/02/01 11:51:08;;;;;;;7.18;2.50;;;;;;;3.45;100.00;100166.19;5017155;28;20049;-75
2022/02/01 11:53:35;;;;;;;4.18;2.55;;;;;;;3.45;100.00;100161.81;5009662;28;20046;-76
2022/02/01 11:56:04;;;;;;;4.32;3.00;;;;;;;3.48;100.00;100138.25;5012507;28;20755;-76
2022/02/01 11:58:31;;;;;;;4.30;2.88;;;;;;;3.51;100.00;100137.19;5006464;28;20041;-75
2022/02/01 12:00:59;;;;;;;5.15;2.97;;;;;;;3.55;100.00;100130.00;5013659;28;20052;-76
2022/02/01 12:03:30;;;;;;;3.42;3.00;;;;;;;3.56;100.00;100127.31;5028394;28;20069;-75
2022/02/01 12:06:06;;;;;;;4.07;2.90;;;;;;;3.55;100.00;100109.25;5010760;28;20058;-77
2022/02/01 12:08:34;;;;;;;4.90;3.42;;;;;;;3.58;100.00;100091.72;5005826;28;20186;-77
2022/02/01 12:11:03;;;;;;;5.25;3.88;;;;;;;3.59;100.00;100085.56;5024395;28;20048;-76
2022/02/01 12:13:32;;;;;;;6.68;3.72;;;;;;;3.62;100.00;100082.75;5010707;28;20037;-76
2022/02/01 12:15:59;;;;;;;4.90;4.00;;;;;;;3.69;100.00;100072.69;5005370;28;20087;-76
2022/02/01 12:19:02;;;;;;;5.15;3.85;;;;;;;3.77;100.00;100072.97;5010811;28;20858;-77
2022/02/01 12:21:49;;;;;;;5.97;4.43;;;;;;;3.76;100.00;100057.50;5009022;28;20041;-76
2022/02/01 12:24:15;;;;;;;6.80;3.85;;;;;;;3.88;100.00;100064.31;5012170;28;20045;-77
2022/02/01 12:26:43;;;;;;;6.65;4.75;;;;;;;3.92;100.00;100038.97;5011191;28;20033;-76
2022/02/01 12:29:13;;;;;;;4.18;3.55;;;;;;;4.04;100.00;100040.59;5011324;28;20127;-76
2022/02/01 12:31:41;;;;;;;4.97;3.90;;;;;;;4.11;100.00;100041.75;5018988;28;20061;-75
2022/02/01 12:34:12;;;;;;;6.45;4.35;;;;;;;4.14;100.00;100036.31;5010454;28;20129;-77
2022/02/01 12:36:48;;;;;;;6.35;3.63;;;;;;;4.18;100.00;100040.34;5005184;28;20022;-77
2022/02/01 12:39:33;;;;;;;5.82;3.80;;;;;;;4.15;100.00;100032.78;5012314;28;20032;-77
2022/02/01 12:47:26;;;;;;;8.38;5.80;;;;;;;4.18;100.00;100003.16;5021749;28;20088;-79
2022/02/01 12:49:53;;;;;;;6.60;5.43;;;;;;;4.27;100.00;99992.84;4995995;28;20144;-76
2022/02/01 12:52:32;;;;;;;6.70;5.13;;;;;;;4.36;100.00;99986.09;5022137;28;20029;-76
2022/02/01 12:55:11;;;;;;;6.32;5.20;;;;;;;4.39;100.00;99988.44;5020884;28;20045;-76
2022/02/01 12:57:39;;;;;;;8.38;5.10;;;;;;;4.42;100.00;99998.56;5023921;28;20693;-76
2022/02/01 13:00:13;;;;;;;7.55;5.07;;;;;;;4.53;100.00;99989.09;5027834;28;20042;-76